sensor_id;sensor_type;location;lat;lon;timestamp;P1;durP1;ratioP1;P2;durP2;ratioP2
3487;SDS011;38546;48.170;11.724;2024-02-21T00:00:25;4.60;;;3.83;;
3487;SDS011;38546;48.170;11.724;2024-02-21T00:02:56;3.20;;;2.80;;
3487;SDS011;38546;48.170;11.724;2024-02-21T00:05:29;6.07;;;2.90;;
3487;SDS011;38546;48.170;11.724;2024-02-21T00:08:00;7.83;;;3.30;;
3487;SDS011;38546;48.170;11.724;2024-02-21T00:10:33;4.73;;;3.20;;
3487;SDS011;38546;48.170;11.724;2024-02-21T00:13:05;5.30;;;3.63;;
3487;SDS011;38546;48.170;11.724;2024-02-21T00:15:35;6.70;;;3.10;;
3487;SDS011;38546;48.170;11.724;2024-02-21T00:18:07;3.60;;;2.80;;
3487;SDS011;38546;48.170;11.724;2024-02-21T00:20:37;2.97;;;2.77;;
3487;SDS011;38546;48.170;11.724;2024-02-21T00:23:08;5.33;;;3.53;;
3487;SDS011;38546;48.170;11.724;2024-02-21T00:25:39;5.50;;;3.60;;
3487;SDS011;38546;48.170;11.724;2024-02-21T00:28:09;6.77;;;4.23;;
3487;SDS011;38546;48.170;11.724;2024-02-21T00:30:40;5.33;;;3.00;;
3487;SDS011;38546;48.170;11.724;2024-02-21T00:33:11;6.77;;;3.67;;
3487;SDS011;38546;48.170;11.724;2024-02-21T00:35:42;3.90;;;3.50;;
3487;SDS011;38546;48.170;11.724;2024-02-21T00:38:12;4.67;;;3.60;;
3487;SDS011;38546;48.170;11.724;2024-02-21T00:40:43;3.17;;;2.53;;
3487;SDS011;38546;48.170;11.724;2024-02-21T00:43:14;6.73;;;3.33;;
3487;SDS011;38546;48.170;11.724;2024-02-21T00:45:45;5.30;;;2.87;;
3487;SDS011;38546;48.170;11.724;2024-02-21T00:48:15;2.63;;;2.43;;
3487;SDS011;38546;48.170;11.724;2024-02-21T00:50:46;3.37;;;3.03;;
3487;SDS011;38546;48.170;11.724;2024-02-21T00:53:17;4.10;;;3.10;;
3487;SDS011;38546;48.170;11.724;2024-02-21T00:55:47;6.80;;;3.33;;
3487;SDS011;38546;48.170;11.724;2024-02-21T00:58:18;5.80;;;2.73;;
3487;SDS011;38546;48.170;11.724;2024-02-21T01:00:49;4.20;;;2.50;;
3487;SDS011;38546;48.170;11.724;2024-02-21T01:03:19;4.50;;;3.87;;
3487;SDS011;38546;48.170;11.724;2024-02-21T01:05:50;6.03;;;2.80;;
3487;SDS011;38546;48.170;11.724;2024-02-21T01:08:21;6.90;;;3.00;;
3487;SDS011;38546;48.170;11.724;2024-02-21T01:10:51;6.03;;;2.77;;
3487;SDS011;38546;48.170;11.724;2024-02-21T01:13:22;9.60;;;3.17;;
3487;SDS011;38546;48.170;11.724;2024-02-21T01:15:52;3.53;;;3.23;;
3487;SDS011;38546;48.170;11.724;2024-02-21T01:18:24;8.13;;;3.20;;
3487;SDS011;38546;48.170;11.724;2024-02-21T01:20:54;2.60;;;2.40;;
3487;SDS011;38546;48.170;11.724;2024-02-21T01:23:25;2.20;;;2.10;;
3487;SDS011;38546;48.170;11.724;2024-02-21T01:25:56;3.87;;;2.93;;
3487;SDS011;38546;48.170;11.724;2024-02-21T01:28:26;4.23;;;2.77;;
3487;SDS011;38546;48.170;11.724;2024-02-21T01:30:57;5.90;;;3.50;;
3487;SDS011;38546;48.170;11.724;2024-02-21T01:33:28;3.63;;;2.67;;
3487;SDS011;38546;48.170;11.724;2024-02-21T01:36:02;3.50;;;3.20;;
3487;SDS011;38546;48.170;11.724;2024-02-21T01:38:33;2.90;;;2.67;;
3487;SDS011;38546;48.170;11.724;2024-02-21T01:41:04;2.80;;;2.30;;
3487;SDS011;38546;48.170;11.724;2024-02-21T01:43:35;3.07;;;2.53;;
3487;SDS011;38546;48.170;11.724;2024-02-21T01:46:06;4.47;;;2.87;;
3487;SDS011;38546;48.170;11.724;2024-02-21T01:48:38;5.00;;;2.70;;
3487;SDS011;38546;48.170;11.724;2024-02-21T01:51:09;3.93;;;2.40;;
3487;SDS011;38546;48.170;11.724;2024-02-21T01:53:42;6.63;;;2.33;;
3487;SDS011;38546;48.170;11.724;2024-02-21T01:56:14;3.97;;;2.50;;
3487;SDS011;38546;48.170;11.724;2024-02-21T01:58:45;3.50;;;2.30;;
3487;SDS011;38546;48.170;11.724;2024-02-21T02:01:17;4.43;;;2.77;;
3487;SDS011;38546;48.170;11.724;2024-02-21T02:03:48;3.00;;;2.50;;
3487;SDS011;38546;48.170;11.724;2024-02-21T02:06:19;2.97;;;2.10;;
3487;SDS011;38546;48.170;11.724;2024-02-21T02:08:50;2.57;;;2.10;;
3487;SDS011;38546;48.170;11.724;2024-02-21T02:11:21;3.97;;;2.10;;
3487;SDS011;38546;48.170;11.724;2024-02-21T02:13:52;3.47;;;2.33;;
3487;SDS011;38546;48.170;11.724;2024-02-21T02:16:22;2.23;;;2.00;;
3487;SDS011;38546;48.170;11.724;2024-02-21T02:18:53;4.33;;;2.70;;
3487;SDS011;38546;48.170;11.724;2024-02-21T02:21:29;3.10;;;2.10;;
3487;SDS011;38546;48.170;11.724;2024-02-21T02:24:05;2.13;;;1.97;;
3487;SDS011;38546;48.170;11.724;2024-02-21T02:26:36;2.40;;;2.20;;
3487;SDS011;38546;48.170;11.724;2024-02-21T02:29:07;2.30;;;2.03;;
3487;SDS011;38546;48.170;11.724;2024-02-21T02:31:38;2.00;;;1.90;;
3487;SDS011;38546;48.170;11.724;2024-02-21T02:34:08;4.60;;;2.80;;
3487;SDS011;38546;48.170;11.724;2024-02-21T02:36:39;2.50;;;2.30;;
3487;SDS011;38546;48.170;11.724;2024-02-21T02:39:10;4.63;;;2.07;;
3487;SDS011;38546;48.170;11.724;2024-02-21T02:41:40;4.33;;;2.20;;
3487;SDS011;38546;48.170;11.724;2024-02-21T02:44:11;2.60;;;2.40;;
3487;SDS011;38546;48.170;11.724;2024-02-21T02:46:42;2.13;;;1.97;;
3487;SDS011;38546;48.170;11.724;2024-02-21T02:49:13;3.50;;;1.73;;
3487;SDS011;38546;48.170;11.724;2024-02-21T02:51:43;7.40;;;2.40;;
3487;SDS011;38546;48.170;11.724;2024-02-21T02:54:14;2.80;;;1.80;;
3487;SDS011;38546;48.170;11.724;2024-02-21T02:56:45;2.07;;;1.97;;
3487;SDS011;38546;48.170;11.724;2024-02-21T02:59:15;4.80;;;2.23;;
3487;SDS011;38546;48.170;11.724;2024-02-21T03:01:46;2.40;;;2.20;;
3487;SDS011;38546;48.170;11.724;2024-02-21T03:04:17;2.83;;;2.00;;
3487;SDS011;38546;48.170;11.724;2024-02-21T03:06:47;1.90;;;1.80;;
3487;SDS011;38546;48.170;11.724;2024-02-21T03:09:18;2.17;;;1.93;;
3487;SDS011;38546;48.170;11.724;2024-02-21T03:11:49;1.60;;;1.60;;
3487;SDS011;38546;48.170;11.724;2024-02-21T03:14:19;1.90;;;1.50;;
3487;SDS011;38546;48.170;11.724;2024-02-21T03:16:51;1.80;;;1.70;;
3487;SDS011;38546;48.170;11.724;2024-02-21T03:19:21;2.63;;;2.43;;
3487;SDS011;38546;48.170;11.724;2024-02-21T03:21:52;1.87;;;1.77;;
3487;SDS011;38546;48.170;11.724;2024-02-21T03:24:23;3.50;;;2.10;;
3487;SDS011;38546;48.170;11.724;2024-02-21T03:26:53;3.03;;;2.17;;
3487;SDS011;38546;48.170;11.724;2024-02-21T03:29:24;1.97;;;1.73;;
3487;SDS011;38546;48.170;11.724;2024-02-21T03:31:55;1.93;;;1.83;;
3487;SDS011;38546;48.170;11.724;2024-02-21T03:34:26;1.63;;;1.60;;
3487;SDS011;38546;48.170;11.724;2024-02-21T03:36:56;1.90;;;1.80;;
3487;SDS011;38546;48.170;11.724;2024-02-21T03:39:27;3.50;;;1.90;;
3487;SDS011;38546;48.170;11.724;2024-02-21T03:42:02;2.80;;;1.90;;
3487;SDS011;38546;48.170;11.724;2024-02-21T03:44:34;2.77;;;1.80;;
3487;SDS011;38546;48.170;11.724;2024-02-21T03:47:06;2.20;;;2.00;;
3487;SDS011;38546;48.170;11.724;2024-02-21T03:49:40;2.50;;;1.67;;
3487;SDS011;38546;48.170;11.724;2024-02-21T03:52:10;1.90;;;1.80;;
3487;SDS011;38546;48.170;11.724;2024-02-21T03:54:41;2.73;;;1.93;;
3487;SDS011;38546;48.170;11.724;2024-02-21T03:57:12;2.60;;;2.10;;
3487;SDS011;38546;48.170;11.724;2024-02-21T03:59:42;2.23;;;1.60;;
3487;SDS011;38546;48.170;11.724;2024-02-21T04:02:13;1.73;;;1.63;;
3487;SDS011;38546;48.170;11.724;2024-02-21T04:04:44;1.77;;;1.67;;
3487;SDS011;38546;48.170;11.724;2024-02-21T04:07:18;2.87;;;1.80;;
3487;SDS011;38546;48.170;11.724;2024-02-21T04:09:49;2.10;;;2.00;;
3487;SDS011;38546;48.170;11.724;2024-02-21T04:12:19;1.70;;;1.60;;
3487;SDS011;38546;48.170;11.724;2024-02-21T04:14:51;3.80;;;2.20;;
3487;SDS011;38546;48.170;11.724;2024-02-21T04:17:21;1.93;;;1.83;;
3487;SDS011;38546;48.170;11.724;2024-02-21T04:19:53;3.47;;;2.10;;
3487;SDS011;38546;48.170;11.724;2024-02-21T04:22:35;2.33;;;2.07;;
3487;SDS011;38546;48.170;11.724;2024-02-21T04:25:06;2.73;;;2.20;;
3487;SDS011;38546;48.170;11.724;2024-02-21T04:27:38;2.03;;;1.87;;
3487;SDS011;38546;48.170;11.724;2024-02-21T04:30:09;2.50;;;1.63;;
3487;SDS011;38546;48.170;11.724;2024-02-21T04:32:40;4.77;;;1.90;;
3487;SDS011;38546;48.170;11.724;2024-02-21T04:35:11;1.80;;;1.70;;
3487;SDS011;38546;48.170;11.724;2024-02-21T04:37:42;1.80;;;1.70;;
3487;SDS011;38546;48.170;11.724;2024-02-21T04:40:12;1.73;;;1.63;;
3487;SDS011;38546;48.170;11.724;2024-02-21T04:42:44;2.10;;;1.60;;
3487;SDS011;38546;48.170;11.724;2024-02-21T04:45:14;1.50;;;1.40;;
3487;SDS011;38546;48.170;11.724;2024-02-21T04:47:45;1.77;;;1.67;;
3487;SDS011;38546;48.170;11.724;2024-02-21T04:50:16;1.83;;;1.73;;
3487;SDS011;38546;48.170;11.724;2024-02-21T04:52:47;2.00;;;1.90;;
3487;SDS011;38546;48.170;11.724;2024-02-21T04:55:17;2.37;;;1.87;;
3487;SDS011;38546;48.170;11.724;2024-02-21T04:57:48;1.47;;;1.47;;
3487;SDS011;38546;48.170;11.724;2024-02-21T05:00:19;2.10;;;1.80;;
3487;SDS011;38546;48.170;11.724;2024-02-21T05:02:50;2.63;;;2.20;;
3487;SDS011;38546;48.170;11.724;2024-02-21T05:05:20;12.50;;;2.27;;
3487;SDS011;38546;48.170;11.724;2024-02-21T05:07:51;4.10;;;1.70;;
3487;SDS011;38546;48.170;11.724;2024-02-21T05:10:22;3.50;;;2.37;;
3487;SDS011;38546;48.170;11.724;2024-02-21T05:12:53;1.50;;;1.50;;
3487;SDS011;38546;48.170;11.724;2024-02-21T05:15:24;3.93;;;1.60;;
3487;SDS011;38546;48.170;11.724;2024-02-21T05:17:55;2.07;;;1.87;;
3487;SDS011;38546;48.170;11.724;2024-02-21T05:20:25;2.20;;;2.00;;
3487;SDS011;38546;48.170;11.724;2024-02-21T05:22:56;1.73;;;1.53;;
3487;SDS011;38546;48.170;11.724;2024-02-21T05:25:27;2.57;;;1.73;;
3487;SDS011;38546;48.170;11.724;2024-02-21T05:27:57;2.00;;;1.90;;
3487;SDS011;38546;48.170;11.724;2024-02-21T05:30:32;1.60;;;1.60;;
3487;SDS011;38546;48.170;11.724;2024-02-21T05:33:05;2.10;;;2.00;;
3487;SDS011;38546;48.170;11.724;2024-02-21T05:35:37;1.30;;;1.30;;
3487;SDS011;38546;48.170;11.724;2024-02-21T05:38:07;1.77;;;1.67;;
3487;SDS011;38546;48.170;11.724;2024-02-21T05:40:41;1.97;;;1.87;;
3487;SDS011;38546;48.170;11.724;2024-02-21T05:43:13;3.63;;;1.83;;
3487;SDS011;38546;48.170;11.724;2024-02-21T05:45:43;1.70;;;1.70;;
3487;SDS011;38546;48.170;11.724;2024-02-21T05:48:14;1.87;;;1.77;;
3487;SDS011;38546;48.170;11.724;2024-02-21T05:50:45;1.80;;;1.63;;
3487;SDS011;38546;48.170;11.724;2024-02-21T05:53:15;1.60;;;1.53;;
3487;SDS011;38546;48.170;11.724;2024-02-21T05:55:46;1.70;;;1.40;;
3487;SDS011;38546;48.170;11.724;2024-02-21T05:58:17;1.63;;;1.53;;
3487;SDS011;38546;48.170;11.724;2024-02-21T06:00:47;1.73;;;1.63;;
3487;SDS011;38546;48.170;11.724;2024-02-21T06:03:18;1.80;;;1.60;;
3487;SDS011;38546;48.170;11.724;2024-02-21T06:05:49;1.53;;;1.50;;
3487;SDS011;38546;48.170;11.724;2024-02-21T06:08:19;1.53;;;1.50;;
3487;SDS011;38546;48.170;11.724;2024-02-21T06:10:50;2.00;;;1.80;;
3487;SDS011;38546;48.170;11.724;2024-02-21T06:13:24;2.80;;;1.40;;
3487;SDS011;38546;48.170;11.724;2024-02-21T06:15:55;1.30;;;1.30;;
3487;SDS011;38546;48.170;11.724;2024-02-21T06:18:25;4.20;;;1.23;;
3487;SDS011;38546;48.170;11.724;2024-02-21T06:20:56;2.00;;;1.70;;
3487;SDS011;38546;48.170;11.724;2024-02-21T06:23:27;1.50;;;1.40;;
3487;SDS011;38546;48.170;11.724;2024-02-21T06:25:57;1.80;;;1.70;;
3487;SDS011;38546;48.170;11.724;2024-02-21T06:28:28;2.67;;;2.10;;
3487;SDS011;38546;48.170;11.724;2024-02-21T06:30:59;2.10;;;1.70;;
3487;SDS011;38546;48.170;11.724;2024-02-21T06:33:29;1.27;;;1.17;;
3487;SDS011;38546;48.170;11.724;2024-02-21T06:36:00;2.50;;;1.57;;
3487;SDS011;38546;48.170;11.724;2024-02-21T06:38:31;1.90;;;1.80;;
3487;SDS011;38546;48.170;11.724;2024-02-21T06:41:01;2.70;;;1.97;;
3487;SDS011;38546;48.170;11.724;2024-02-21T06:43:32;4.63;;;1.53;;
3487;SDS011;38546;48.170;11.724;2024-02-21T06:46:03;2.13;;;1.80;;
3487;SDS011;38546;48.170;11.724;2024-02-21T06:48:34;4.40;;;1.27;;
3487;SDS011;38546;48.170;11.724;2024-02-21T06:51:04;1.60;;;1.50;;
3487;SDS011;38546;48.170;11.724;2024-02-21T06:53:35;2.63;;;1.60;;
3487;SDS011;38546;48.170;11.724;2024-02-21T06:56:06;1.60;;;1.50;;
3487;SDS011;38546;48.170;11.724;2024-02-21T06:58:36;2.30;;;1.43;;
3487;SDS011;38546;48.170;11.724;2024-02-21T07:01:08;1.90;;;1.80;;
3487;SDS011;38546;48.170;11.724;2024-02-21T07:03:40;2.83;;;1.80;;
3487;SDS011;38546;48.170;11.724;2024-02-21T07:06:11;1.00;;;1.00;;
3487;SDS011;38546;48.170;11.724;2024-02-21T07:08:42;2.23;;;2.10;;
3487;SDS011;38546;48.170;11.724;2024-02-21T07:11:12;2.63;;;1.70;;
3487;SDS011;38546;48.170;11.724;2024-02-21T07:13:43;1.17;;;1.17;;
3487;SDS011;38546;48.170;11.724;2024-02-21T07:16:14;2.00;;;1.63;;
3487;SDS011;38546;48.170;11.724;2024-02-21T07:18:44;3.23;;;1.30;;
3487;SDS011;38546;48.170;11.724;2024-02-21T07:21:15;1.80;;;1.70;;
3487;SDS011;38546;48.170;11.724;2024-02-21T07:23:45;1.77;;;1.40;;
3487;SDS011;38546;48.170;11.724;2024-02-21T07:26:16;2.40;;;1.53;;
3487;SDS011;38546;48.170;11.724;2024-02-21T07:28:47;1.47;;;1.10;;
3487;SDS011;38546;48.170;11.724;2024-02-21T07:31:17;2.00;;;1.80;;
3487;SDS011;38546;48.170;11.724;2024-02-21T07:33:48;1.47;;;1.40;;
3487;SDS011;38546;48.170;11.724;2024-02-21T07:36:29;1.43;;;1.33;;
3487;SDS011;38546;48.170;11.724;2024-02-21T07:39:02;2.53;;;1.40;;
3487;SDS011;38546;48.170;11.724;2024-02-21T07:41:34;1.27;;;1.17;;
3487;SDS011;38546;48.170;11.724;2024-02-21T07:44:05;1.57;;;1.47;;
3487;SDS011;38546;48.170;11.724;2024-02-21T07:46:35;1.67;;;1.57;;
3487;SDS011;38546;48.170;11.724;2024-02-21T07:49:06;3.20;;;1.60;;
3487;SDS011;38546;48.170;11.724;2024-02-21T07:51:37;1.50;;;1.40;;
3487;SDS011;38546;48.170;11.724;2024-02-21T07:54:07;2.50;;;1.57;;
3487;SDS011;38546;48.170;11.724;2024-02-21T07:56:38;4.97;;;1.67;;
3487;SDS011;38546;48.170;11.724;2024-02-21T07:59:09;1.47;;;1.37;;
3487;SDS011;38546;48.170;11.724;2024-02-21T08:01:39;2.03;;;1.93;;
3487;SDS011;38546;48.170;11.724;2024-02-21T08:04:10;4.60;;;2.00;;
3487;SDS011;38546;48.170;11.724;2024-02-21T08:06:41;2.83;;;2.03;;
3487;SDS011;38546;48.170;11.724;2024-02-21T08:09:12;1.37;;;1.27;;
3487;SDS011;38546;48.170;11.724;2024-02-21T08:11:43;3.13;;;1.27;;
3487;SDS011;38546;48.170;11.724;2024-02-21T08:14:13;1.50;;;1.40;;
3487;SDS011;38546;48.170;11.724;2024-02-21T08:16:46;2.93;;;1.63;;
3487;SDS011;38546;48.170;11.724;2024-02-21T08:19:17;3.77;;;1.60;;
3487;SDS011;38546;48.170;11.724;2024-02-21T08:21:48;1.17;;;1.17;;
3487;SDS011;38546;48.170;11.724;2024-02-21T08:24:19;3.30;;;1.30;;
3487;SDS011;38546;48.170;11.724;2024-02-21T08:26:49;1.50;;;1.40;;
3487;SDS011;38546;48.170;11.724;2024-02-21T08:29:20;1.40;;;1.30;;
3487;SDS011;38546;48.170;11.724;2024-02-21T08:31:51;7.20;;;2.03;;
3487;SDS011;38546;48.170;11.724;2024-02-21T08:34:23;2.00;;;1.87;;
3487;SDS011;38546;48.170;11.724;2024-02-21T08:36:54;1.70;;;1.60;;
3487;SDS011;38546;48.170;11.724;2024-02-21T08:39:25;1.50;;;1.40;;
3487;SDS011;38546;48.170;11.724;2024-02-21T08:41:58;1.83;;;1.30;;
3487;SDS011;38546;48.170;11.724;2024-02-21T08:44:29;2.20;;;1.30;;
3487;SDS011;38546;48.170;11.724;2024-02-21T08:47:00;1.80;;;1.53;;
3487;SDS011;38546;48.170;11.724;2024-02-21T08:49:33;2.20;;;1.20;;
3487;SDS011;38546;48.170;11.724;2024-02-21T08:52:04;1.43;;;1.30;;
3487;SDS011;38546;48.170;11.724;2024-02-21T08:54:35;1.20;;;1.10;;
3487;SDS011;38546;48.170;11.724;2024-02-21T08:57:06;7.00;;;1.60;;
3487;SDS011;38546;48.170;11.724;2024-02-21T08:59:36;4.13;;;1.50;;
3487;SDS011;38546;48.170;11.724;2024-02-21T09:02:07;1.60;;;1.30;;
3487;SDS011;38546;48.170;11.724;2024-02-21T09:04:39;2.67;;;1.37;;
3487;SDS011;38546;48.170;11.724;2024-02-21T09:07:10;2.03;;;1.47;;
3487;SDS011;38546;48.170;11.724;2024-02-21T09:09:41;1.70;;;1.40;;
3487;SDS011;38546;48.170;11.724;2024-02-21T09:12:11;1.20;;;1.20;;
3487;SDS011;38546;48.170;11.724;2024-02-21T09:14:42;2.70;;;1.17;;
3487;SDS011;38546;48.170;11.724;2024-02-21T09:17:13;2.23;;;1.03;;
3487;SDS011;38546;48.170;11.724;2024-02-21T09:19:44;1.30;;;1.30;;
3487;SDS011;38546;48.170;11.724;2024-02-21T09:22:15;2.60;;;2.17;;
3487;SDS011;38546;48.170;11.724;2024-02-21T09:24:46;1.10;;;1.00;;
3487;SDS011;38546;48.170;11.724;2024-02-21T09:27:17;2.27;;;1.20;;
3487;SDS011;38546;48.170;11.724;2024-02-21T09:29:48;2.70;;;1.33;;
3487;SDS011;38546;48.170;11.724;2024-02-21T09:32:18;3.53;;;1.40;;
3487;SDS011;38546;48.170;11.724;2024-02-21T09:34:49;2.10;;;1.10;;
3487;SDS011;38546;48.170;11.724;2024-02-21T09:37:20;2.03;;;1.80;;
3487;SDS011;38546;48.170;11.724;2024-02-21T09:39:51;2.43;;;1.33;;
3487;SDS011;38546;48.170;11.724;2024-02-21T09:42:22;1.00;;;1.00;;
3487;SDS011;38546;48.170;11.724;2024-02-21T09:45:08;1.53;;;1.40;;
3487;SDS011;38546;48.170;11.724;2024-02-21T09:48:30;2.50;;;1.40;;
3487;SDS011;38546;48.170;11.724;2024-02-21T09:51:51;1.53;;;1.20;;
3487;SDS011;38546;48.170;11.724;2024-02-21T09:54:25;1.63;;;1.20;;
3487;SDS011;38546;48.170;11.724;2024-02-21T09:57:00;1.67;;;1.20;;
3487;SDS011;38546;48.170;11.724;2024-02-21T09:59:33;2.20;;;1.23;;
3487;SDS011;38546;48.170;11.724;2024-02-21T10:02:04;1.83;;;1.13;;
3487;SDS011;38546;48.170;11.724;2024-02-21T10:04:35;2.97;;;1.17;;
3487;SDS011;38546;48.170;11.724;2024-02-21T10:07:06;2.30;;;1.00;;
3487;SDS011;38546;48.170;11.724;2024-02-21T10:09:37;1.87;;;1.00;;
3487;SDS011;38546;48.170;11.724;2024-02-21T10:12:08;1.13;;;1.00;;
3487;SDS011;38546;48.170;11.724;2024-02-21T10:14:40;5.30;;;1.10;;
3487;SDS011;38546;48.170;11.724;2024-02-21T10:17:17;3.83;;;1.37;;
3487;SDS011;38546;48.170;11.724;2024-02-21T10:19:50;1.47;;;1.30;;
3487;SDS011;38546;48.170;11.724;2024-02-21T10:22:22;1.80;;;1.10;;
3487;SDS011;38546;48.170;11.724;2024-02-21T10:24:55;1.30;;;1.20;;
3487;SDS011;38546;48.170;11.724;2024-02-21T10:27:37;3.07;;;1.93;;
3487;SDS011;38546;48.170;11.724;2024-02-21T10:30:12;1.40;;;1.30;;
3487;SDS011;38546;48.170;11.724;2024-02-21T10:32:51;1.50;;;1.40;;
3487;SDS011;38546;48.170;11.724;2024-02-21T10:35:30;3.03;;;1.10;;
3487;SDS011;38546;48.170;11.724;2024-02-21T10:38:03;2.50;;;1.30;;
3487;SDS011;38546;48.170;11.724;2024-02-21T10:40:34;2.27;;;1.10;;
3487;SDS011;38546;48.170;11.724;2024-02-21T10:43:05;1.30;;;1.20;;
3487;SDS011;38546;48.170;11.724;2024-02-21T10:45:42;1.10;;;1.10;;
3487;SDS011;38546;48.170;11.724;2024-02-21T10:48:16;2.10;;;1.10;;
3487;SDS011;38546;48.170;11.724;2024-02-21T10:51:18;3.80;;;1.20;;
3487;SDS011;38546;48.170;11.724;2024-02-21T10:53:55;1.70;;;0.80;;
3487;SDS011;38546;48.170;11.724;2024-02-21T10:56:55;3.40;;;1.17;;
3487;SDS011;38546;48.170;11.724;2024-02-21T10:59:27;2.60;;;1.20;;
3487;SDS011;38546;48.170;11.724;2024-02-21T11:02:00;1.53;;;1.00;;
3487;SDS011;38546;48.170;11.724;2024-02-21T11:04:31;1.17;;;1.10;;
3487;SDS011;38546;48.170;11.724;2024-02-21T11:07:06;1.10;;;1.07;;
3487;SDS011;38546;48.170;11.724;2024-02-21T11:09:37;1.20;;;1.10;;
3487;SDS011;38546;48.170;11.724;2024-02-21T11:12:08;0.80;;;0.80;;
3487;SDS011;38546;48.170;11.724;2024-02-21T11:14:40;1.57;;;1.57;;
3487;SDS011;38546;48.170;11.724;2024-02-21T11:17:15;1.27;;;0.73;;
3487;SDS011;38546;48.170;11.724;2024-02-21T11:19:51;0.70;;;0.70;;
3487;SDS011;38546;48.170;11.724;2024-02-21T11:22:22;1.10;;;0.97;;
3487;SDS011;38546;48.170;11.724;2024-02-21T11:24:54;0.70;;;0.70;;
3487;SDS011;38546;48.170;11.724;2024-02-21T11:27:25;1.20;;;1.20;;
3487;SDS011;38546;48.170;11.724;2024-02-21T11:29:56;1.20;;;1.00;;
3487;SDS011;38546;48.170;11.724;2024-02-21T11:32:28;2.57;;;1.20;;
3487;SDS011;38546;48.170;11.724;2024-02-21T11:35:02;0.73;;;0.73;;
3487;SDS011;38546;48.170;11.724;2024-02-21T11:37:35;1.50;;;0.80;;
3487;SDS011;38546;48.170;11.724;2024-02-21T11:40:09;0.97;;;0.97;;
3487;SDS011;38546;48.170;11.724;2024-02-21T11:42:41;0.70;;;0.70;;
3487;SDS011;38546;48.170;11.724;2024-02-21T11:45:11;2.67;;;0.57;;
3487;SDS011;38546;48.170;11.724;2024-02-21T11:47:46;1.03;;;0.93;;
3487;SDS011;38546;48.170;11.724;2024-02-21T11:50:17;1.00;;;0.70;;
3487;SDS011;38546;48.170;11.724;2024-02-21T11:52:48;3.20;;;0.90;;
3487;SDS011;38546;48.170;11.724;2024-02-21T11:55:18;1.43;;;0.80;;
3487;SDS011;38546;48.170;11.724;2024-02-21T11:57:49;1.27;;;0.83;;
3487;SDS011;38546;48.170;11.724;2024-02-21T12:00:20;0.70;;;0.70;;
3487;SDS011;38546;48.170;11.724;2024-02-21T12:02:54;0.80;;;0.80;;
3487;SDS011;38546;48.170;11.724;2024-02-21T12:05:25;1.67;;;0.93;;
3487;SDS011;38546;48.170;11.724;2024-02-21T12:07:58;0.80;;;0.80;;
3487;SDS011;38546;48.170;11.724;2024-02-21T12:10:30;1.73;;;0.70;;
3487;SDS011;38546;48.170;11.724;2024-02-21T12:13:10;0.80;;;0.80;;
3487;SDS011;38546;48.170;11.724;2024-02-21T12:15:41;0.90;;;0.90;;
3487;SDS011;38546;48.170;11.724;2024-02-21T12:18:19;0.83;;;0.83;;
3487;SDS011;38546;48.170;11.724;2024-02-21T12:20:50;0.97;;;0.90;;
3487;SDS011;38546;48.170;11.724;2024-02-21T12:23:20;0.70;;;0.70;;
3487;SDS011;38546;48.170;11.724;2024-02-21T12:25:51;0.73;;;0.73;;
3487;SDS011;38546;48.170;11.724;2024-02-21T12:28:24;0.80;;;0.80;;
3487;SDS011;38546;48.170;11.724;2024-02-21T12:30:55;2.93;;;0.63;;
3487;SDS011;38546;48.170;11.724;2024-02-21T12:33:25;0.50;;;0.50;;
3487;SDS011;38546;48.170;11.724;2024-02-21T12:35:56;0.90;;;0.90;;
3487;SDS011;38546;48.170;11.724;2024-02-21T12:38:27;0.77;;;0.77;;
3487;SDS011;38546;48.170;11.724;2024-02-21T12:40:57;0.90;;;0.90;;
3487;SDS011;38546;48.170;11.724;2024-02-21T12:43:30;0.97;;;0.83;;
3487;SDS011;38546;48.170;11.724;2024-02-21T12:46:01;0.70;;;0.70;;
3487;SDS011;38546;48.170;11.724;2024-02-21T12:48:33;0.70;;;0.70;;
3487;SDS011;38546;48.170;11.724;2024-02-21T12:51:04;0.70;;;0.60;;
3487;SDS011;38546;48.170;11.724;2024-02-21T12:53:35;0.77;;;0.77;;
3487;SDS011;38546;48.170;11.724;2024-02-21T12:56:05;0.67;;;0.67;;
3487;SDS011;38546;48.170;11.724;2024-02-21T12:58:37;1.07;;;0.73;;
3487;SDS011;38546;48.170;11.724;2024-02-21T13:01:08;0.70;;;0.70;;
3487;SDS011;38546;48.170;11.724;2024-02-21T13:03:39;1.77;;;0.80;;
3487;SDS011;38546;48.170;11.724;2024-02-21T13:06:09;0.80;;;0.70;;
3487;SDS011;38546;48.170;11.724;2024-02-21T13:08:40;0.60;;;0.53;;
3487;SDS011;38546;48.170;11.724;2024-02-21T13:11:11;0.67;;;0.67;;
3487;SDS011;38546;48.170;11.724;2024-02-21T13:13:43;0.60;;;0.60;;
3487;SDS011;38546;48.170;11.724;2024-02-21T13:16:13;0.70;;;0.70;;
3487;SDS011;38546;48.170;11.724;2024-02-21T13:18:44;0.60;;;0.60;;
3487;SDS011;38546;48.170;11.724;2024-02-21T13:21:17;0.60;;;0.60;;
3487;SDS011;38546;48.170;11.724;2024-02-21T13:23:48;1.10;;;0.70;;
3487;SDS011;38546;48.170;11.724;2024-02-21T13:26:19;0.90;;;0.90;;
3487;SDS011;38546;48.170;11.724;2024-02-21T13:28:50;1.07;;;0.80;;
3487;SDS011;38546;48.170;11.724;2024-02-21T13:31:21;0.57;;;0.57;;
3487;SDS011;38546;48.170;11.724;2024-02-21T13:33:52;1.50;;;0.67;;
3487;SDS011;38546;48.170;11.724;2024-02-21T13:36:22;0.50;;;0.50;;
3487;SDS011;38546;48.170;11.724;2024-02-21T13:38:53;0.70;;;0.70;;
3487;SDS011;38546;48.170;11.724;2024-02-21T13:41:24;0.60;;;0.60;;
3487;SDS011;38546;48.170;11.724;2024-02-21T13:43:55;0.63;;;0.63;;
3487;SDS011;38546;48.170;11.724;2024-02-21T13:46:26;0.60;;;0.60;;
3487;SDS011;38546;48.170;11.724;2024-02-21T13:49:02;1.80;;;0.60;;
3487;SDS011;38546;48.170;11.724;2024-02-21T13:51:35;1.10;;;0.60;;
3487;SDS011;38546;48.170;11.724;2024-02-21T13:54:07;1.33;;;0.90;;
3487;SDS011;38546;48.170;11.724;2024-02-21T13:56:39;0.60;;;0.60;;
3487;SDS011;38546;48.170;11.724;2024-02-21T13:59:09;0.83;;;0.60;;
3487;SDS011;38546;48.170;11.724;2024-02-21T14:01:43;0.70;;;0.70;;
3487;SDS011;38546;48.170;11.724;2024-02-21T14:04:14;0.60;;;0.60;;
3487;SDS011;38546;48.170;11.724;2024-02-21T14:06:44;0.93;;;0.60;;
3487;SDS011;38546;48.170;11.724;2024-02-21T14:09:15;0.60;;;0.60;;
3487;SDS011;38546;48.170;11.724;2024-02-21T14:11:46;0.67;;;0.67;;
3487;SDS011;38546;48.170;11.724;2024-02-21T14:14:16;0.70;;;0.60;;
3487;SDS011;38546;48.170;11.724;2024-02-21T14:16:47;0.50;;;0.50;;
3487;SDS011;38546;48.170;11.724;2024-02-21T14:19:18;0.80;;;0.80;;
3487;SDS011;38546;48.170;11.724;2024-02-21T14:21:49;2.10;;;1.60;;
3487;SDS011;38546;48.170;11.724;2024-02-21T14:24:19;0.53;;;0.53;;
3487;SDS011;38546;48.170;11.724;2024-02-21T14:26:50;0.80;;;0.80;;
3487;SDS011;38546;48.170;11.724;2024-02-21T14:29:21;0.70;;;0.70;;
3487;SDS011;38546;48.170;11.724;2024-02-21T14:31:52;0.70;;;0.60;;
3487;SDS011;38546;48.170;11.724;2024-02-21T14:34:22;1.73;;;0.60;;
3487;SDS011;38546;48.170;11.724;2024-02-21T14:36:53;0.97;;;0.80;;
3487;SDS011;38546;48.170;11.724;2024-02-21T14:39:24;1.07;;;0.90;;
3487;SDS011;38546;48.170;11.724;2024-02-21T14:41:55;1.27;;;1.13;;
3487;SDS011;38546;48.170;11.724;2024-02-21T14:44:25;0.97;;;0.97;;
3487;SDS011;38546;48.170;11.724;2024-02-21T14:46:57;0.70;;;0.70;;
3487;SDS011;38546;48.170;11.724;2024-02-21T14:49:28;0.80;;;0.80;;
3487;SDS011;38546;48.170;11.724;2024-02-21T14:51:58;0.93;;;0.90;;
3487;SDS011;38546;48.170;11.724;2024-02-21T14:54:29;1.30;;;1.20;;
3487;SDS011;38546;48.170;11.724;2024-02-21T14:57:00;0.87;;;0.87;;
3487;SDS011;38546;48.170;11.724;2024-02-21T14:59:35;0.80;;;0.80;;
3487;SDS011;38546;48.170;11.724;2024-02-21T15:02:06;0.93;;;0.93;;
3487;SDS011;38546;48.170;11.724;2024-02-21T15:04:38;1.47;;;0.77;;
3487;SDS011;38546;48.170;11.724;2024-02-21T15:07:09;0.60;;;0.60;;
3487;SDS011;38546;48.170;11.724;2024-02-21T15:09:39;0.80;;;0.80;;
3487;SDS011;38546;48.170;11.724;2024-02-21T15:12:10;0.80;;;0.80;;
3487;SDS011;38546;48.170;11.724;2024-02-21T15:14:41;2.60;;;0.80;;